createdAt,value
2017-11-16T00:00:11.128Z,45.00
2017-11-16T00:01:11.835Z,37.00
2017-11-16T00:02:12.547Z,39.00
2017-11-16T00:03:13.256Z,32.00
2017-11-16T00:04:13.960Z,56.00
2017-11-16T00:05:14.666Z,48.00
2017-11-16T00:06:15.373Z,44.00
2017-11-16T00:07:16.079Z,37.00
2017-11-16T00:08:16.786Z,41.00
2017-11-16T00:09:17.494Z,34.00
2017-11-16T00:10:18.203Z,44.00
2017-11-16T00:11:18.921Z,46.00
2017-11-16T00:12:19.630Z,46.00
2017-11-16T00:13:20.340Z,39.00
2017-11-16T00:14:21.065Z,54.00
2017-11-16T00:15:21.788Z,33.00
2017-11-16T00:16:22.491Z,41.00
2017-11-16T00:17:23.197Z,38.00
2017-11-16T00:18:23.918Z,35.00
2017-11-16T00:19:24.626Z,34.00
2017-11-16T00:20:25.333Z,33.00
2017-11-16T00:21:26.042Z,44.00
2017-11-16T00:22:26.749Z,47.00
2017-11-16T00:23:27.461Z,49.00
2017-11-16T00:25:43.385Z,40.00
2017-11-16T00:26:44.110Z,48.00
2017-11-16T00:27:44.812Z,35.00
2017-11-16T00:28:45.520Z,45.00
2017-11-16T00:29:46.226Z,45.00
2017-11-16T00:30:46.934Z,36.00
2017-11-16T00:31:47.642Z,49.00
2017-11-16T00:32:48.350Z,42.00
2017-11-16T00:33:49.056Z,39.00
2017-11-16T00:34:49.763Z,45.00
2017-11-16T00:35:50.484Z,41.00
2017-11-16T00:36:51.189Z,43.00
2017-11-16T00:37:51.897Z,51.00
2017-11-16T00:38:52.618Z,53.00
2017-11-16T00:39:53.339Z,41.00
2017-11-16T00:40:54.049Z,43.00
2017-11-16T00:41:54.774Z,48.00
2017-11-16T00:42:55.488Z,40.00
2017-11-16T00:43:56.194Z,37.00
2017-11-16T00:44:56.901Z,41.00
2017-11-16T00:45:57.609Z,47.00
2017-11-16T00:46:58.317Z,44.00
2017-11-16T00:47:59.036Z,37.00
2017-11-16T00:48:59.756Z,32.00
2017-11-16T00:50:00.462Z,55.00
2017-11-16T00:51:01.172Z,37.00
2017-11-16T00:52:01.877Z,43.00
2017-11-16T00:53:02.598Z,46.00
2017-11-16T00:54:03.306Z,44.00
2017-11-16T00:55:04.027Z,43.00
2017-11-16T00:56:04.737Z,44.00
2017-11-16T00:57:05.447Z,39.00
2017-11-16T00:58:06.168Z,45.00
2017-11-16T00:59:06.875Z,41.00
2017-11-16T01:00:07.583Z,57.00
2017-11-16T01:01:08.289Z,51.00
2017-11-16T01:02:08.996Z,34.00
2017-11-16T01:03:09.702Z,44.00
2017-11-16T01:04:10.410Z,39.00
2017-11-16T01:05:11.115Z,39.00
2017-11-16T01:06:11.822Z,33.00
2017-11-16T01:07:12.540Z,45.00
2017-11-16T01:08:13.245Z,29.00
2017-11-16T01:09:13.944Z,35.00
2017-11-16T01:10:14.652Z,40.00
2017-11-16T01:11:15.372Z,46.00
2017-11-16T01:12:16.091Z,49.00
2017-11-16T01:13:16.811Z,41.00
2017-11-16T01:14:17.519Z,45.00
2017-11-16T01:15:18.227Z,46.00
2017-11-16T01:16:18.934Z,34.00
2017-11-16T01:17:19.642Z,54.00
2017-11-16T01:18:20.350Z,42.00
2017-11-16T01:19:21.058Z,40.00
2017-11-16T01:20:21.772Z,39.00
2017-11-16T01:21:22.473Z,49.00
2017-11-16T01:22:23.181Z,50.00
2017-11-16T01:23:23.887Z,49.00
2017-11-16T01:24:24.594Z,33.00
2017-11-16T01:25:25.313Z,32.00
2017-11-16T01:26:26.023Z,30.00
2017-11-16T01:27:26.740Z,41.00
2017-11-16T01:28:27.448Z,50.00
2017-11-16T01:29:28.156Z,40.00
2017-11-16T01:30:28.878Z,48.00
2017-11-16T01:31:29.587Z,44.00
2017-11-16T01:32:30.307Z,34.00
2017-11-16T01:33:31.020Z,46.00
2017-11-16T01:34:31.733Z,34.00
2017-11-16T01:35:32.441Z,41.00
2017-11-16T01:36:33.163Z,40.00
2017-11-16T01:37:33.871Z,41.00
2017-11-16T01:38:34.579Z,51.00
2017-11-16T01:39:35.286Z,33.00
2017-11-16T01:40:36.006Z,40.00
2017-11-16T01:41:36.717Z,47.00
2017-11-16T01:42:37.429Z,44.00
2017-11-16T01:43:38.137Z,54.00
2017-11-16T01:44:38.854Z,41.00
2017-11-16T01:45:39.573Z,42.00
2017-11-16T01:46:40.285Z,26.00
2017-11-16T01:47:40.994Z,33.00
2017-11-16T01:48:41.703Z,48.00
2017-11-16T01:49:42.411Z,43.00
2017-11-16T01:50:43.121Z,26.00
2017-11-16T01:51:43.830Z,33.00
2017-11-16T01:52:44.553Z,42.00
2017-11-16T01:53:45.263Z,52.00
2017-11-16T01:54:45.973Z,35.00
2017-11-16T01:55:46.682Z,43.00
2017-11-16T01:56:47.394Z,39.00
2017-11-16T01:57:48.106Z,42.00
2017-11-16T01:58:48.817Z,37.00
2017-11-16T01:59:49.526Z,37.00
2017-11-16T02:00:50.237Z,37.00
2017-11-16T02:01:50.960Z,38.00
2017-11-16T02:02:51.686Z,42.00
2017-11-16T02:03:52.397Z,38.00
2017-11-16T02:04:53.106Z,33.00
2017-11-16T02:05:53.816Z,29.00
2017-11-16T02:06:54.539Z,37.00
2017-11-16T02:07:55.249Z,25.00
2017-11-16T02:08:55.959Z,48.00
2017-11-16T02:09:56.669Z,25.00
2017-11-16T02:10:57.395Z,43.00
2017-11-16T02:11:58.109Z,39.00
2017-11-16T02:12:58.812Z,32.00
2017-11-16T02:13:59.558Z,35.00
2017-11-16T02:15:00.244Z,38.00
2017-11-16T02:16:00.992Z,33.00
2017-11-16T02:17:01.664Z,33.00
2017-11-16T02:18:02.390Z,31.00
2017-11-16T02:19:03.097Z,30.00
2017-11-16T02:20:03.808Z,37.00
2017-11-16T02:21:04.518Z,45.00
2017-11-16T02:22:05.227Z,33.00
2017-11-16T02:23:05.953Z,30.00
2017-11-16T02:24:06.676Z,35.00
2017-11-16T02:25:07.387Z,34.00
2017-11-16T02:26:08.098Z,29.00
2017-11-16T02:27:08.809Z,24.00
2017-11-16T02:28:09.519Z,27.00
2017-11-16T02:29:10.229Z,23.00
2017-11-16T02:30:10.940Z,33.00
2017-11-16T02:31:11.649Z,34.00
2017-11-16T02:32:12.359Z,32.00
2017-11-16T02:33:13.071Z,31.00
2017-11-16T02:34:13.783Z,34.00
2017-11-16T02:35:14.504Z,37.00
2017-11-16T02:36:15.215Z,31.00
2017-11-16T02:37:15.925Z,29.00
2017-11-16T02:38:16.635Z,32.00
2017-11-16T02:39:17.360Z,24.00
2017-11-16T02:40:18.071Z,21.00
2017-11-16T02:41:18.785Z,30.00
2017-11-16T02:42:19.503Z,29.00
2017-11-16T02:43:20.212Z,47.00
2017-11-16T02:44:20.920Z,34.00
2017-11-16T02:45:21.647Z,23.00
2017-11-16T02:46:22.355Z,31.00
2017-11-16T02:47:23.063Z,44.00
2017-11-16T02:48:23.787Z,30.00
2017-11-16T02:49:24.494Z,32.00
2017-11-16T02:50:25.206Z,34.00
2017-11-16T02:51:25.915Z,24.00
2017-11-16T02:52:26.638Z,27.00
2017-11-16T02:53:27.347Z,37.00
2017-11-16T02:54:28.054Z,21.00
2017-11-16T02:55:28.791Z,33.00
2017-11-16T02:56:29.501Z,24.00
2017-11-16T02:57:30.216Z,24.00
2017-11-16T02:58:30.926Z,26.00
2017-11-16T02:59:31.634Z,24.00
2017-11-16T03:00:32.342Z,21.00
2017-11-16T03:01:33.051Z,27.00
2017-11-16T03:02:33.760Z,26.00
2017-11-16T03:03:34.472Z,32.00
2017-11-16T03:04:35.185Z,32.00
2017-11-16T03:05:35.906Z,31.00
2017-11-16T03:06:36.617Z,33.00
2017-11-16T03:07:37.340Z,25.00
2017-11-16T03:08:38.050Z,21.00
2017-11-16T03:09:38.775Z,22.00
2017-11-16T03:10:39.488Z,22.00
2017-11-16T03:11:40.197Z,19.00
2017-11-16T03:12:40.907Z,28.00
2017-11-16T03:13:41.615Z,32.00
2017-11-16T03:14:42.325Z,25.00
2017-11-16T03:15:43.037Z,33.00
2017-11-16T03:16:43.743Z,27.00
2017-11-16T03:17:44.453Z,27.00
2017-11-16T03:18:45.163Z,25.00
2017-11-16T03:19:45.874Z,23.00
2017-11-16T03:20:46.584Z,28.00
2017-11-16T03:21:47.291Z,26.00
2017-11-16T03:22:48.001Z,28.00
2017-11-16T03:23:48.726Z,25.00
2017-11-16T03:24:49.449Z,22.00
2017-11-16T03:25:50.159Z,22.00
2017-11-16T03:26:50.867Z,23.00
2017-11-16T03:27:51.575Z,26.00
2017-11-16T03:28:52.303Z,13.00
2017-11-16T03:29:53.012Z,24.00
2017-11-16T03:30:53.740Z,18.00
2017-11-16T03:31:54.445Z,21.00
2017-11-16T03:32:55.154Z,18.00
2017-11-16T03:33:55.880Z,13.00
2017-11-16T03:34:56.589Z,31.00
2017-11-16T03:35:57.297Z,24.00
2017-11-16T03:36:58.007Z,21.00
2017-11-16T03:37:58.717Z,18.00
2017-11-16T03:38:59.426Z,23.00
2017-11-16T03:40:00.135Z,21.00
2017-11-16T03:41:00.847Z,22.00
2017-11-16T03:42:01.572Z,28.00
2017-11-16T03:43:02.283Z,23.00
2017-11-16T03:44:02.992Z,17.00
2017-11-16T03:45:03.717Z,24.00
2017-11-16T03:46:04.440Z,24.00
2017-11-16T03:47:05.151Z,21.00
2017-11-16T03:48:05.865Z,16.00
2017-11-16T03:49:06.572Z,15.00
2017-11-16T03:50:07.280Z,15.00
2017-11-16T03:51:07.989Z,28.00
2017-11-16T03:52:08.696Z,24.00
2017-11-16T03:53:09.406Z,16.00
2017-11-16T03:54:10.116Z,17.00
2017-11-16T03:55:10.837Z,15.00
2017-11-16T03:56:11.547Z,15.00
2017-11-16T03:57:12.271Z,16.00
2017-11-16T03:58:12.980Z,18.00
2017-11-16T03:59:13.690Z,16.00
2017-11-16T04:00:14.413Z,24.00
2017-11-16T04:01:15.127Z,29.00
2017-11-16T04:02:15.846Z,16.00
2017-11-16T04:03:16.556Z,20.00
2017-11-16T04:04:17.278Z,21.00
2017-11-16T04:05:17.987Z,15.00
2017-11-16T04:06:18.697Z,24.00
2017-11-16T04:07:19.405Z,20.00
2017-11-16T04:08:20.115Z,23.00
2017-11-16T04:09:20.824Z,32.00
2017-11-16T04:10:21.534Z,21.00
2017-11-16T04:11:22.241Z,16.00
2017-11-16T04:12:22.954Z,20.00
2017-11-16T04:13:23.671Z,20.00
2017-11-16T04:14:24.388Z,19.00
2017-11-16T04:15:25.099Z,24.00
2017-11-16T04:16:25.809Z,22.00
2017-11-16T04:17:26.533Z,21.00
2017-11-16T04:18:27.245Z,19.00
2017-11-16T04:19:27.955Z,17.00
2017-11-16T04:20:28.664Z,17.00
2017-11-16T04:21:29.373Z,20.00
2017-11-16T04:22:30.080Z,17.00
2017-11-16T04:23:30.790Z,29.00
2017-11-16T04:24:31.499Z,22.00
2017-11-16T04:25:32.209Z,15.00
2017-11-16T04:26:32.920Z,20.00
2017-11-16T04:27:33.629Z,24.00
2017-11-16T04:28:34.339Z,22.00
2017-11-16T04:29:35.064Z,21.00
2017-11-16T04:30:35.775Z,30.00
2017-11-16T04:31:36.483Z,25.00
2017-11-16T04:32:37.190Z,23.00
2017-11-16T04:33:37.898Z,27.00
2017-11-16T04:34:38.621Z,21.00
2017-11-16T04:35:39.361Z,25.00
2017-11-16T04:36:40.057Z,23.00
2017-11-16T04:37:40.768Z,20.00
2017-11-16T04:38:41.489Z,18.00
2017-11-16T04:39:42.200Z,20.00
2017-11-16T04:40:42.909Z,19.00
2017-11-16T04:41:43.619Z,17.00
2017-11-16T04:42:44.355Z,29.00
2017-11-16T04:43:45.066Z,28.00
2017-11-16T04:44:45.777Z,15.00
2017-11-16T04:45:46.485Z,25.00
2017-11-16T04:46:47.193Z,15.00
2017-11-16T04:47:47.903Z,20.00
2017-11-16T04:48:48.616Z,16.00
2017-11-16T04:49:49.324Z,24.00
2017-11-16T04:50:50.035Z,21.00
2017-11-16T04:51:50.745Z,22.00
2017-11-16T04:52:51.456Z,15.00
2017-11-16T04:53:52.165Z,17.00
2017-11-16T04:54:52.872Z,23.00
2017-11-16T04:55:53.580Z,13.00
2017-11-16T04:56:54.303Z,24.00
2017-11-16T04:57:55.013Z,23.00
2017-11-16T04:58:55.721Z,23.00
2017-11-16T04:59:56.430Z,20.00
2017-11-16T05:00:57.138Z,28.00
2017-11-16T05:01:57.849Z,21.00
2017-11-16T05:02:58.560Z,20.00
2017-11-16T05:03:59.277Z,21.00
2017-11-16T05:04:59.981Z,20.00
2017-11-16T05:06:00.704Z,23.00
2017-11-16T05:07:01.431Z,20.00
2017-11-16T05:08:02.141Z,28.00
2017-11-16T05:09:02.865Z,20.00
2017-11-16T05:10:03.574Z,21.00
2017-11-16T05:11:04.287Z,27.00
2017-11-16T05:12:04.993Z,19.00
2017-11-16T05:13:05.701Z,19.00
2017-11-16T05:14:06.417Z,21.00
2017-11-16T05:15:07.120Z,27.00
2017-11-16T05:16:07.844Z,31.00
2017-11-16T05:17:08.553Z,21.00
2017-11-16T05:18:09.275Z,28.00
2017-11-16T05:19:09.985Z,34.00
2017-11-16T05:20:10.711Z,26.00
2017-11-16T05:21:11.421Z,21.00
2017-11-16T05:22:12.130Z,24.00
2017-11-16T05:23:12.855Z,25.00
2017-11-16T05:24:13.561Z,31.00
2017-11-16T05:25:14.271Z,18.00
2017-11-16T05:26:14.992Z,24.00
2017-11-16T05:27:15.698Z,19.00
2017-11-16T05:28:16.410Z,19.00
2017-11-16T05:29:17.115Z,24.00
2017-11-16T05:30:17.838Z,14.00
2017-11-16T05:31:18.547Z,23.00
2017-11-16T05:32:19.256Z,22.00
2017-11-16T05:33:19.980Z,24.00
2017-11-16T05:34:20.689Z,25.00
2017-11-16T05:35:21.397Z,27.00
2017-11-16T05:36:22.107Z,26.00
2017-11-16T05:37:22.816Z,27.00
2017-11-16T05:38:23.526Z,21.00
2017-11-16T05:39:24.251Z,24.00
2017-11-16T05:40:24.977Z,20.00
2017-11-16T05:41:25.684Z,25.00
2017-11-16T05:42:26.394Z,28.00
2017-11-16T05:43:27.116Z,23.00
2017-11-16T05:44:27.845Z,22.00
2017-11-16T05:45:28.567Z,29.00
2017-11-16T05:46:29.294Z,33.00
2017-11-16T05:47:30.004Z,34.00
2017-11-16T05:48:30.713Z,27.00
2017-11-16T05:49:31.422Z,27.00
2017-11-16T05:50:32.131Z,23.00
2017-11-16T05:51:32.856Z,26.00
2017-11-16T05:52:33.563Z,20.00
2017-11-16T05:53:34.271Z,24.00
2017-11-16T05:54:34.999Z,27.00
2017-11-16T05:55:35.706Z,25.00
2017-11-16T05:56:36.414Z,30.00
2017-11-16T05:57:37.125Z,31.00
2017-11-16T05:58:37.835Z,27.00
2017-11-16T05:59:38.545Z,34.00
2017-11-16T06:00:39.255Z,33.00
2017-11-16T06:01:39.964Z,32.00
2017-11-16T06:02:40.673Z,29.00
2017-11-16T06:03:41.383Z,31.00
2017-11-16T06:04:42.092Z,34.00
2017-11-16T06:05:42.801Z,40.00
2017-11-16T06:06:43.510Z,38.00
2017-11-16T06:07:44.226Z,28.00
2017-11-16T06:08:44.946Z,28.00
2017-11-16T06:09:45.656Z,24.00
2017-11-16T06:10:46.368Z,23.00
2017-11-16T06:11:47.075Z,30.00
2017-11-16T06:12:47.785Z,31.00
2017-11-16T06:13:48.492Z,27.00
2017-11-16T06:14:49.206Z,32.00
2017-11-16T06:15:49.927Z,27.00
2017-11-16T06:16:50.635Z,37.00
2017-11-16T06:17:51.359Z,25.00
2017-11-16T06:18:52.087Z,33.00
2017-11-16T06:19:52.796Z,25.00
2017-11-16T06:20:53.505Z,27.00
2017-11-16T06:21:54.212Z,27.00
2017-11-16T06:22:54.921Z,34.00
2017-11-16T06:23:55.643Z,35.00
2017-11-16T06:24:56.371Z,36.00
2017-11-16T06:25:57.081Z,30.00
2017-11-16T06:26:57.804Z,32.00
2017-11-16T06:27:58.519Z,36.00
2017-11-16T06:28:59.226Z,37.00
2017-11-16T06:29:59.931Z,30.00
2017-11-16T06:31:00.638Z,24.00
2017-11-16T06:32:01.348Z,39.00
2017-11-16T06:33:02.059Z,35.00
2017-11-16T06:34:02.769Z,26.00
2017-11-16T06:35:03.492Z,30.00
2017-11-16T06:36:04.220Z,19.00
2017-11-16T06:37:04.927Z,25.00
2017-11-16T06:38:05.644Z,21.00
2017-11-16T06:39:06.350Z,40.00
2017-11-16T06:40:07.062Z,27.00
2017-11-16T06:41:07.770Z,32.00
2017-11-16T06:42:08.481Z,35.00
2017-11-16T06:43:09.192Z,49.00
2017-11-16T06:44:09.910Z,39.00
2017-11-16T06:45:10.613Z,33.00
2017-11-16T06:46:11.322Z,63.00
2017-11-16T06:47:12.034Z,58.00
2017-11-16T06:48:12.745Z,32.00
2017-11-16T06:49:13.458Z,28.00
2017-11-16T06:50:14.168Z,30.00
2017-11-16T06:51:14.877Z,37.00
2017-11-16T06:52:15.588Z,24.00
2017-11-16T06:53:16.297Z,32.00
2017-11-16T06:54:17.007Z,47.00
2017-11-16T06:55:17.730Z,35.00
2017-11-16T06:56:18.455Z,41.00
2017-11-16T06:57:19.180Z,33.00
2017-11-16T06:58:19.905Z,40.00
2017-11-16T06:59:20.632Z,34.00
2017-11-16T07:00:21.343Z,29.00
2017-11-16T07:01:22.056Z,49.00
2017-11-16T07:02:22.766Z,34.00
2017-11-16T07:03:23.492Z,26.00
2017-11-16T07:04:24.217Z,40.00
2017-11-16T07:05:24.929Z,40.00
2017-11-16T07:06:25.641Z,33.00
2017-11-16T07:07:26.361Z,31.00
2017-11-16T07:08:27.080Z,36.00
2017-11-16T07:09:27.792Z,32.00
2017-11-16T07:10:28.519Z,40.00
2017-11-16T07:11:29.230Z,57.00
2017-11-16T07:12:29.942Z,28.00
2017-11-16T07:13:30.668Z,33.00
2017-11-16T07:14:31.398Z,39.00
2017-11-16T07:15:32.109Z,31.00
2017-11-16T07:16:32.823Z,33.00
2017-11-16T07:17:33.535Z,49.00
2017-11-16T07:18:34.247Z,31.00
2017-11-16T07:19:34.963Z,33.00
2017-11-16T07:20:35.677Z,42.00
2017-11-16T07:21:36.385Z,39.00
2017-11-16T07:22:37.096Z,38.00
2017-11-16T07:23:37.809Z,42.00
2017-11-16T07:24:38.522Z,35.00
2017-11-16T07:25:39.233Z,50.00
2017-11-16T07:26:39.948Z,27.00
2017-11-16T07:27:40.664Z,30.00
2017-11-16T07:28:41.389Z,37.00
2017-11-16T07:29:42.107Z,53.00
2017-11-16T07:30:42.829Z,32.00
2017-11-16T07:31:43.540Z,27.00
2017-11-16T07:32:44.253Z,38.00
2017-11-16T07:33:44.965Z,46.00
2017-11-16T07:34:45.693Z,42.00
2017-11-16T07:35:46.405Z,48.00
2017-11-16T07:36:47.120Z,39.00
2017-11-16T07:37:47.845Z,36.00
2017-11-16T07:38:48.560Z,43.00
2017-11-16T07:39:49.276Z,48.00
2017-11-16T07:40:49.987Z,35.00
2017-11-16T07:41:50.699Z,43.00
2017-11-16T07:42:51.427Z,42.00
2017-11-16T07:43:52.144Z,32.00
2017-11-16T07:44:52.854Z,34.00
2017-11-16T07:45:53.569Z,34.00
2017-11-16T07:46:54.290Z,41.00
2017-11-16T07:47:55.007Z,30.00
2017-11-16T07:48:55.734Z,28.00
2017-11-16T07:49:56.449Z,61.00
2017-11-16T07:50:57.160Z,33.00
2017-11-16T07:51:57.876Z,34.00
2017-11-16T07:52:58.605Z,40.00
2017-11-16T07:53:59.318Z,44.00
2017-11-16T07:55:00.039Z,33.00
2017-11-16T07:56:00.745Z,38.00
2017-11-16T07:57:01.458Z,40.00
2017-11-16T07:58:02.183Z,28.00
2017-11-16T07:59:02.896Z,32.00
2017-11-16T08:00:03.622Z,41.00
2017-11-16T08:01:04.335Z,43.00
2017-11-16T08:02:05.047Z,35.00
2017-11-16T08:03:05.761Z,32.00
2017-11-16T08:04:06.473Z,46.00
2017-11-16T08:05:07.189Z,31.00
2017-11-16T08:06:07.909Z,38.00
2017-11-16T08:07:08.618Z,49.00
2017-11-16T08:08:09.331Z,38.00
2017-11-16T08:09:10.058Z,33.00
2017-11-16T08:10:10.776Z,45.00
2017-11-16T08:11:11.488Z,34.00
2017-11-16T08:12:12.200Z,46.00
2017-11-16T08:13:12.916Z,44.00
2017-11-16T08:14:13.629Z,56.00
2017-11-16T08:15:14.342Z,48.00
2017-11-16T08:16:15.072Z,37.00
2017-11-16T08:17:15.786Z,35.00
2017-11-16T08:18:16.509Z,33.00
2017-11-16T08:19:17.231Z,33.00
2017-11-16T08:20:17.942Z,39.00
2017-11-16T08:21:18.657Z,51.00
2017-11-16T08:22:19.370Z,41.00
2017-11-16T08:23:20.100Z,51.00
2017-11-16T08:24:20.845Z,46.00
2017-11-16T08:25:21.542Z,40.00
2017-11-16T08:26:22.256Z,41.00
2017-11-16T08:27:22.971Z,38.00
2017-11-16T08:28:23.697Z,40.00
2017-11-16T08:29:24.410Z,47.00
2017-11-16T08:30:25.127Z,46.00
2017-11-16T08:31:25.840Z,38.00
2017-11-16T08:32:26.558Z,42.00
2017-11-16T08:33:27.274Z,44.00
2017-11-16T08:34:27.982Z,32.00
2017-11-16T08:35:28.696Z,36.00
2017-11-16T08:36:29.411Z,34.00
2017-11-16T08:37:30.126Z,62.00
2017-11-16T08:38:30.843Z,41.00
2017-11-16T08:39:31.567Z,41.00
2017-11-16T08:40:32.283Z,37.00
2017-11-16T08:41:32.998Z,31.00
2017-11-16T08:42:33.710Z,32.00
2017-11-16T08:43:34.426Z,35.00
2017-11-16T08:44:35.143Z,51.00
2017-11-16T08:45:35.867Z,29.00
2017-11-16T08:46:36.588Z,76.00
2017-11-16T08:47:37.295Z,38.00
2017-11-16T08:48:38.026Z,37.00
2017-11-16T08:49:38.740Z,41.00
2017-11-16T08:50:39.453Z,36.00
2017-11-16T08:51:40.168Z,53.00
2017-11-16T08:52:40.882Z,50.00
2017-11-16T08:53:41.597Z,55.00
2017-11-16T08:54:42.312Z,40.00
2017-11-16T08:55:43.025Z,41.00
2017-11-16T08:56:43.761Z,40.00
2017-11-16T08:57:44.467Z,32.00
2017-11-16T08:58:45.186Z,42.00
2017-11-16T08:59:45.898Z,39.00
2017-11-16T09:00:46.610Z,52.00
2017-11-16T09:01:47.338Z,39.00
2017-11-16T09:02:48.056Z,41.00
2017-11-16T09:03:48.782Z,39.00
2017-11-16T09:04:49.512Z,37.00
2017-11-16T09:05:50.240Z,31.00
2017-11-16T09:06:50.970Z,55.00
2017-11-16T09:07:51.685Z,37.00
2017-11-16T09:08:52.400Z,48.00
2017-11-16T09:09:53.115Z,55.00
2017-11-16T09:10:53.829Z,62.00
2017-11-16T09:11:54.544Z,57.00
2017-11-16T09:12:55.258Z,61.00
2017-11-16T09:13:55.972Z,55.00
2017-11-16T09:14:56.687Z,54.00
2017-11-16T09:15:57.401Z,50.00
2017-11-16T09:16:58.115Z,45.00
2017-11-16T09:17:58.844Z,36.00
2017-11-16T09:18:59.558Z,41.00
2017-11-16T09:20:00.275Z,37.00
2017-11-16T09:21:00.987Z,51.00
2017-11-16T09:22:01.705Z,31.00
2017-11-16T09:23:02.417Z,45.00
2017-11-16T09:24:03.130Z,50.00
2017-11-16T09:25:03.857Z,51.00
2017-11-16T09:26:04.586Z,47.00
2017-11-16T09:27:05.303Z,33.00
2017-11-16T09:28:06.017Z,46.00
2017-11-16T09:29:06.734Z,49.00
2017-11-16T09:30:07.445Z,40.00
2017-11-16T09:31:08.201Z,31.00
2017-11-16T09:32:08.872Z,46.00
2017-11-16T09:33:09.602Z,34.00
2017-11-16T09:34:10.316Z,58.00
2017-11-16T09:35:11.032Z,46.00
2017-11-16T09:36:11.747Z,40.00
2017-11-16T09:37:12.462Z,41.00
2017-11-16T09:38:13.177Z,32.00
2017-11-16T09:39:13.893Z,41.00
2017-11-16T09:40:14.608Z,36.00
2017-11-16T09:41:15.322Z,46.00
2017-11-16T09:42:16.037Z,41.00
2017-11-16T09:43:16.753Z,38.00
2017-11-16T09:44:17.484Z,40.00
2017-11-16T09:45:18.198Z,36.00
2017-11-16T09:46:18.913Z,41.00
2017-11-16T09:47:19.674Z,35.00
2017-11-16T09:48:20.374Z,40.00
2017-11-16T09:49:21.091Z,44.00
2017-11-16T09:50:21.805Z,41.00
2017-11-16T09:51:22.521Z,58.00
2017-11-16T09:52:23.236Z,25.00
2017-11-16T09:53:23.952Z,41.00
2017-11-16T09:54:24.683Z,40.00
2017-11-16T09:55:25.399Z,42.00
2017-11-16T09:56:26.127Z,33.00
2017-11-16T09:57:26.846Z,33.00
2017-11-16T09:58:27.560Z,46.00
2017-11-16T09:59:28.292Z,41.00
2017-11-16T10:00:29.005Z,40.00
2017-11-16T10:01:29.721Z,45.00
2017-11-16T10:02:30.452Z,51.00
2017-11-16T10:03:31.166Z,43.00
2017-11-16T10:04:31.884Z,37.00
2017-11-16T10:05:32.616Z,41.00
2017-11-16T10:06:33.331Z,37.00
2017-11-16T10:07:34.048Z,34.00
2017-11-16T10:08:34.762Z,48.00
2017-11-16T10:09:35.478Z,42.00
2017-11-16T10:10:36.195Z,35.00
2017-11-16T10:11:36.910Z,44.00
2017-11-16T10:12:37.629Z,46.00
2017-11-16T10:13:38.345Z,47.00
2017-11-16T10:14:39.060Z,43.00
2017-11-16T10:15:39.777Z,42.00
2017-11-16T10:16:40.493Z,37.00
2017-11-16T10:17:41.210Z,39.00
2017-11-16T10:18:41.927Z,43.00
2017-11-16T10:19:42.655Z,49.00
2017-11-16T10:20:43.373Z,46.00
2017-11-16T10:21:44.110Z,40.00
2017-11-16T10:22:44.818Z,39.00
2017-11-16T10:23:45.535Z,44.00
2017-11-16T10:24:46.252Z,61.00
2017-11-16T10:25:46.969Z,42.00
2017-11-16T10:26:47.699Z,41.00
2017-11-16T10:27:48.416Z,53.00
2017-11-16T10:28:49.134Z,51.00
2017-11-16T10:29:49.861Z,51.00
2017-11-16T10:30:50.576Z,49.00
2017-11-16T10:31:51.295Z,40.00
2017-11-16T10:32:52.025Z,36.00
2017-11-16T10:33:52.740Z,46.00
2017-11-16T10:34:53.472Z,38.00
2017-11-16T10:35:54.189Z,33.00
2017-11-16T10:36:54.904Z,42.00
2017-11-16T10:37:55.623Z,50.00
2017-11-16T10:38:56.338Z,45.00
2017-11-16T10:39:57.055Z,43.00
2017-11-16T10:40:57.773Z,31.00
2017-11-16T10:41:58.485Z,52.00
2017-11-16T10:42:59.204Z,47.00
2017-11-16T10:43:59.921Z,85.00
2017-11-16T10:45:00.641Z,80.00
2017-11-16T10:46:01.370Z,59.00
2017-11-16T10:47:02.101Z,51.00
2017-11-16T10:48:02.820Z,36.00
2017-11-16T10:49:03.551Z,41.00
2017-11-16T10:50:04.268Z,36.00
2017-11-16T10:51:04.989Z,43.00
2017-11-16T10:52:05.702Z,33.00
2017-11-16T10:53:06.420Z,30.00
2017-11-16T10:54:07.137Z,41.00
2017-11-16T10:55:07.855Z,45.00
2017-11-16T10:56:08.572Z,43.00
2017-11-16T10:57:09.290Z,38.00
2017-11-16T10:58:10.006Z,51.00
2017-11-16T10:59:10.721Z,56.00
2017-11-16T11:00:11.440Z,60.00
2017-11-16T11:01:12.157Z,61.00
2017-11-16T11:02:12.873Z,44.00
2017-11-16T11:03:13.593Z,47.00
2017-11-16T11:04:14.309Z,40.00
2017-11-16T11:05:15.026Z,39.00
2017-11-16T11:06:15.744Z,46.00
2017-11-16T11:07:16.460Z,33.00
2017-11-16T11:08:17.179Z,51.00
2017-11-16T11:09:17.895Z,57.00
2017-11-16T11:10:18.611Z,38.00
2017-11-16T11:11:19.327Z,51.00
2017-11-16T11:12:20.042Z,42.00
2017-11-16T11:13:20.761Z,54.00
2017-11-16T11:14:21.480Z,58.00
2017-11-16T11:15:22.195Z,45.00
2017-11-16T11:16:22.911Z,51.00
2017-11-16T11:17:23.626Z,29.00
2017-11-16T11:18:24.341Z,48.00
2017-11-16T11:19:25.059Z,52.00
2017-11-16T11:20:25.789Z,44.00
2017-11-16T11:21:26.507Z,45.00
2017-11-16T11:22:27.230Z,39.00
2017-11-16T11:23:27.940Z,40.00
2017-11-16T11:24:28.657Z,48.00
2017-11-16T11:25:29.397Z,43.00
2017-11-16T11:26:30.118Z,41.00
2017-11-16T11:27:30.857Z,33.00
2017-11-16T11:28:31.584Z,38.00
2017-11-16T11:29:32.303Z,35.00
2017-11-16T11:30:33.031Z,44.00
2017-11-16T11:31:33.748Z,42.00
2017-11-16T11:32:34.478Z,37.00
2017-11-16T11:33:35.195Z,42.00
2017-11-16T11:34:35.925Z,42.00
2017-11-16T11:35:36.642Z,36.00
2017-11-16T11:36:37.359Z,46.00
2017-11-16T11:37:38.075Z,48.00
2017-11-16T11:38:38.790Z,49.00
2017-11-16T11:39:39.509Z,47.00
2017-11-16T11:40:40.225Z,44.00
2017-11-16T11:41:40.944Z,49.00
2017-11-16T11:42:41.660Z,46.00
2017-11-16T11:43:42.375Z,55.00
2017-11-16T11:44:43.092Z,44.00
2017-11-16T11:45:43.808Z,46.00
2017-11-16T11:46:44.525Z,44.00
2017-11-16T11:47:45.242Z,37.00
2017-11-16T11:48:45.959Z,43.00
2017-11-16T11:49:46.676Z,45.00
2017-11-16T11:50:47.392Z,52.00
2017-11-16T11:51:48.110Z,45.00
2017-11-16T11:52:48.826Z,42.00
2017-11-16T11:53:49.542Z,45.00
2017-11-16T11:54:50.257Z,50.00
2017-11-16T11:55:50.990Z,44.00
2017-11-16T11:56:51.705Z,42.00
2017-11-16T11:57:52.435Z,52.00
2017-11-16T11:58:53.166Z,56.00
2017-11-16T11:59:53.881Z,55.00
2017-11-16T12:00:54.597Z,36.00
2017-11-16T12:01:55.331Z,50.00
2017-11-16T12:02:56.045Z,51.00
2017-11-16T12:03:56.761Z,50.00
2017-11-16T12:04:57.478Z,47.00
2017-11-16T12:05:58.195Z,44.00
2017-11-16T12:06:58.912Z,51.00
2017-11-16T12:07:59.642Z,52.00
2017-11-16T12:09:00.364Z,45.00
2017-11-16T12:10:01.076Z,60.00
2017-11-16T12:11:01.793Z,56.00
2017-11-16T12:12:02.510Z,56.00
2017-11-16T12:13:03.227Z,42.00
2017-11-16T12:14:03.943Z,44.00
2017-11-16T12:15:04.674Z,52.00
2017-11-16T12:16:05.388Z,45.00
2017-11-16T12:17:06.119Z,36.00
2017-11-16T12:18:06.837Z,38.00
2017-11-16T12:19:07.552Z,46.00
2017-11-16T12:20:08.268Z,38.00
2017-11-16T12:21:08.998Z,40.00
2017-11-16T12:22:09.714Z,54.00
2017-11-16T12:23:10.428Z,52.00
2017-11-16T12:24:11.148Z,42.00
2017-11-16T12:25:11.865Z,41.00
2017-11-16T12:26:12.596Z,46.00
2017-11-16T12:27:13.313Z,56.00
2017-11-16T12:28:14.034Z,43.00
2017-11-16T12:29:14.763Z,47.00
2017-11-16T12:30:15.478Z,50.00
2017-11-16T12:31:16.197Z,52.00
2017-11-16T12:32:16.913Z,38.00
2017-11-16T12:33:17.632Z,43.00
2017-11-16T12:34:18.349Z,39.00
2017-11-16T12:35:19.066Z,46.00
2017-11-16T12:36:19.784Z,41.00
2017-11-16T12:37:20.505Z,41.00
2017-11-16T12:38:21.232Z,42.00
2017-11-16T12:39:21.950Z,46.00
2017-11-16T12:40:22.681Z,49.00
2017-11-16T12:41:23.399Z,54.00
2017-11-16T12:42:24.118Z,45.00
2017-11-16T12:43:24.845Z,43.00
2017-11-16T12:44:25.567Z,51.00
2017-11-16T12:45:26.286Z,39.00
2017-11-16T12:46:27.005Z,40.00
2017-11-16T12:47:27.724Z,36.00
2017-11-16T12:48:28.448Z,43.00
2017-11-16T12:49:29.161Z,78.00
2017-11-16T12:50:29.893Z,51.00
2017-11-16T12:51:30.627Z,53.00
2017-11-16T12:52:31.358Z,52.00
2017-11-16T12:53:32.100Z,56.00
2017-11-16T12:54:32.797Z,52.00
2017-11-16T12:55:33.530Z,64.00
2017-11-16T12:56:34.249Z,56.00
2017-11-16T12:57:34.968Z,43.00
2017-11-16T12:58:35.686Z,48.00
2017-11-16T12:59:36.419Z,49.00
2017-11-16T13:00:37.140Z,37.00
2017-11-16T13:01:37.858Z,42.00
2017-11-16T13:02:38.586Z,41.00